Time;durP1;ratioP1;P1;durP2;ratioP2;P2;SDS_P1;SDS_P2;PMS_P1;PMS_P2;Temp;Humidity;BMP_temperature;BMP_pressure;BME280_temperature;BME280_humidity;BME280_pressure;Samples;Min_cycle;Max_cycle;Signal;HPM_P1;HPM_P2
2023/06/29 00:00:23;;;;;;;42.17;28.65;;;18.40;99.90;;;;;;5065824;28;20036;-77
2023/06/29 00:02:49;;;;;;;42.50;29.23;;;18.40;99.90;;;;;;5048266;28;20495;-75
2023/06/29 00:05:15;;;;;;;44.45;29.40;;;18.50;99.90;;;;;;5051129;28;20037;-77
2023/06/29 00:07:41;;;;;;;46.38;30.23;;;18.50;99.90;;;;;;5059344;28;20107;-75
2023/06/29 00:10:08;;;;;;;42.47;29.17;;;18.50;99.90;;;;;;5045512;22;20057;-75
2023/06/29 00:12:34;;;;;;;40.25;30.15;;;18.50;99.90;;;;;;5029859;28;20045;-75
2023/06/29 00:15:00;;;;;;;48.47;31.67;;;18.50;99.90;;;;;;5029601;28;20068;-75
2023/06/29 00:17:26;;;;;;;44.33;30.63;;;18.50;99.90;;;;;;5026680;28;20509;-75
2023/06/29 00:19:52;;;;;;;40.20;28.75;;;18.50;99.90;;;;;;5026724;28;20436;-74
2023/06/29 00:22:18;;;;;;;52.97;31.27;;;18.40;99.90;;;;;;5030848;28;20033;-75
2023/06/29 00:24:54;;;;;;;43.63;30.58;;;18.40;99.90;;;;;;5029787;28;20060;-74
2023/06/29 00:27:20;;;;;;;51.42;31.10;;;18.40;99.90;;;;;;5029693;28;20056;-74
2023/06/29 00:29:46;;;;;;;45.72;30.85;;;18.50;99.90;;;;;;5030801;28;20120;-75
2023/06/29 00:32:12;;;;;;;42.55;30.25;;;18.50;99.90;;;;;;5029578;28;20056;-75
2023/06/29 00:34:38;;;;;;;46.38;30.50;;;18.40;99.90;;;;;;5029283;28;20046;-75
2023/06/29 00:37:05;;;;;;;44.25;31.27;;;18.40;99.90;;;;;;5031008;28;20037;-76
2023/06/29 00:39:34;;;;;;;45.83;31.55;;;18.40;99.90;;;;;;5029632;28;20041;-76
2023/06/29 00:42:00;;;;;;;39.85;28.80;;;18.40;99.90;;;;;;5030938;28;20048;-75
2023/06/29 00:44:26;;;;;;;40.78;28.35;;;18.40;99.90;;;;;;5030717;28;20456;-77
2023/06/29 00:46:53;;;;;;;45.22;30.58;;;18.40;99.90;;;;;;5030556;28;20041;-78
2023/06/29 00:49:20;;;;;;;44.55;29.50;;;18.40;99.90;;;;;;5028904;28;20049;-78
2023/06/29 00:51:51;;;;;;;44.10;30.77;;;18.40;99.90;;;;;;5028843;28;20061;-78
2023/06/29 00:54:17;;;;;;;42.03;30.30;;;18.40;99.90;;;;;;5030664;28;20029;-78
2023/06/29 00:56:43;;;;;;;47.67;30.63;;;18.40;99.90;;;;;;5030405;28;20099;-77
2023/06/29 00:59:09;;;;;;;42.90;30.73;;;18.40;99.90;;;;;;5028938;28;20041;-77
2023/06/29 01:01:37;;;;;;;43.70;30.63;;;18.40;99.90;;;;;;5025299;28;20053;-78
2023/06/29 01:04:03;;;;;;;45.58;31.02;;;18.40;99.90;;;;;;5020559;28;20038;-78
2023/06/29 01:06:32;;;;;;;41.35;28.77;;;18.40;99.90;;;;;;5029049;28;20065;-77
2023/06/29 01:09:05;;;;;;;47.10;30.98;;;18.40;99.90;;;;;;5030289;28;20071;-77
2023/06/29 01:11:37;;;;;;;42.50;30.77;;;18.40;99.90;;;;;;5046853;28;20053;-77
2023/06/29 01:14:05;;;;;;;45.33;30.30;;;18.40;99.90;;;;;;5049758;28;20136;-78
2023/06/29 01:16:33;;;;;;;45.50;30.20;;;18.40;99.90;;;;;;5049310;28;20048;-76
2023/06/29 01:19:06;;;;;;;44.50;30.85;;;18.40;99.90;;;;;;5050184;28;20072;-77
2023/06/29 01:21:37;;;;;;;40.40;29.13;;;18.40;99.90;;;;;;5048751;28;20496;-77
2023/06/29 01:24:04;;;;;;;42.15;29.27;;;18.30;99.90;;;;;;5031857;28;20576;-78
2023/06/29 01:26:30;;;;;;;43.00;29.45;;;18.40;99.90;;;;;;5032022;28;20040;-77
2023/06/29 01:28:56;;;;;;;53.25;30.63;;;18.40;99.90;;;;;;5031685;28;20687;-78
2023/06/29 01:31:26;;;;;;;42.25;29.10;;;18.40;99.90;;;;;;5049924;28;20052;-78
2023/06/29 01:33:52;;;;;;;43.75;28.63;;;18.40;99.90;;;;;;5031558;28;20036;-78
2023/06/29 01:36:32;;;;;;;39.90;28.20;;;18.30;99.90;;;;;;5049438;28;20052;-78
2023/06/29 01:39:23;;;;;;;39.28;27.77;;;18.40;99.90;;;;;;5031794;28;20503;-78
2023/06/29 01:41:51;;;;;;;44.25;28.27;;;18.40;99.90;;;;;;4964722;28;20689;-77
2023/06/29 01:44:19;;;;;;;50.67;30.38;;;18.30;99.90;;;;;;4987427;28;20093;-78
2023/06/29 01:46:46;;;;;;;46.78;29.80;;;18.30;99.90;;;;;;4987828;28;20160;-77
2023/06/29 01:49:13;;;;;;;46.15;29.55;;;18.30;99.90;;;;;;4987822;28;20612;-77
2023/06/29 01:51:38;;;;;;;48.90;31.02;;;18.30;99.90;;;;;;4987450;28;20445;-78
2023/06/29 01:54:04;;;;;;;45.72;29.27;;;18.30;99.90;;;;;;4987709;28;20046;-78
2023/06/29 01:56:30;;;;;;;48.38;30.58;;;18.30;99.90;;;;;;4971132;28;20046;-78
2023/06/29 01:58:56;;;;;;;44.42;29.63;;;18.30;99.90;;;;;;4987281;28;20061;-78
2023/06/29 02:01:22;;;;;;;43.28;28.52;;;18.30;99.90;;;;;;4985467;28;20038;-78
2023/06/29 02:03:48;;;;;;;43.10;30.40;;;18.30;99.90;;;;;;4977749;28;20046;-78
2023/06/29 02:06:13;;;;;;;47.60;30.20;;;18.30;99.90;;;;;;4993653;28;20212;-79
2023/06/29 02:08:39;;;;;;;44.30;29.95;;;18.30;99.90;;;;;;4994270;28;20057;-78
2023/06/29 02:11:05;;;;;;;42.22;29.23;;;18.30;99.90;;;;;;4993436;28;20054;-79
2023/06/29 02:13:30;;;;;;;48.42;30.58;;;18.30;99.90;;;;;;4994184;28;20061;-78
2023/06/29 02:15:56;;;;;;;47.35;30.75;;;18.30;99.90;;;;;;4977292;28;20386;-76
2023/06/29 02:18:22;;;;;;;43.70;28.60;;;18.30;99.90;;;;;;4996983;28;20079;-78
2023/06/29 02:20:47;;;;;;;41.42;29.52;;;18.30;99.90;;;;;;5037403;28;20144;-78
2023/06/29 02:23:13;;;;;;;46.90;30.15;;;18.30;99.90;;;;;;5036024;28;20405;-78
2023/06/29 02:25:38;;;;;;;40.35;28.92;;;18.30;99.90;;;;;;5032078;28;20056;-78
2023/06/29 02:28:04;;;;;;;45.85;30.17;;;18.30;99.90;;;;;;5035721;28;20040;-78
2023/06/29 02:30:30;;;;;;;50.80;31.67;;;18.30;99.90;;;;;;5056035;28;20083;-78
2023/06/29 02:32:55;;;;;;;41.50;29.92;;;18.20;99.90;;;;;;5041737;28;20129;-78
2023/06/29 02:35:21;;;;;;;44.05;29.50;;;18.20;99.90;;;;;;5054077;28;20064;-78
2023/06/29 02:37:46;;;;;;;43.65;29.08;;;18.30;99.90;;;;;;5037010;28;20057;-79
2023/06/29 02:40:12;;;;;;;48.35;29.60;;;18.30;99.90;;;;;;5056040;28;20048;-78
2023/06/29 02:42:38;;;;;;;44.50;28.65;;;18.20;99.90;;;;;;5055688;28;20112;-75
2023/06/29 02:45:04;;;;;;;47.47;28.52;;;18.20;99.90;;;;;;5055702;28;20063;-78
2023/06/29 02:47:30;;;;;;;39.45;28.05;;;18.20;99.90;;;;;;5037028;28;20044;-78
2023/06/29 02:49:56;;;;;;;50.65;32.35;;;18.20;99.90;;;;;;5055408;28;20044;-78
2023/06/29 02:52:21;;;;;;;46.83;29.52;;;18.20;99.90;;;;;;5055252;28;20128;-77
2023/06/29 02:54:49;;;;;;;43.10;28.77;;;18.20;99.90;;;;;;5055655;28;20051;-78
2023/06/29 02:57:14;;;;;;;40.22;28.75;;;18.20;99.90;;;;;;5055137;28;20509;-77
2023/06/29 02:59:40;;;;;;;47.88;28.38;;;18.20;99.90;;;;;;5037510;28;20057;-78
2023/06/29 03:02:06;;;;;;;38.13;27.63;;;18.20;99.90;;;;;;5037329;28;20055;-77
2023/06/29 03:04:31;;;;;;;45.45;29.60;;;18.20;99.90;;;;;;5055584;28;20076;-78
2023/06/29 03:06:57;;;;;;;40.58;28.13;;;18.20;99.90;;;;;;5055157;28;20057;-78
2023/06/29 03:09:23;;;;;;;42.72;28.95;;;18.20;99.90;;;;;;5037301;28;20041;-77
2023/06/29 03:11:48;;;;;;;43.70;28.77;;;18.20;99.90;;;;;;5055208;28;20479;-79
2023/06/29 03:14:14;;;;;;;46.92;28.90;;;18.20;99.90;;;;;;5051810;28;20479;-78
2023/06/29 03:16:41;;;;;;;43.08;29.38;;;18.20;99.90;;;;;;5033589;28;20503;-79
2023/06/29 03:19:07;;;;;;;36.85;26.13;;;18.20;99.90;;;;;;5033068;28;20045;-79
2023/06/29 03:21:32;;;;;;;38.28;26.95;;;18.20;99.90;;;;;;5034167;28;20091;-78
2023/06/29 03:23:58;;;;;;;44.72;28.65;;;18.20;99.90;;;;;;5033764;28;20103;-78
2023/06/29 03:26:24;;;;;;;40.65;27.08;;;18.20;99.90;;;;;;5052202;28;20079;-78
2023/06/29 03:28:50;;;;;;;41.80;27.13;;;18.20;99.90;;;;;;5052090;28;20486;-80
2023/06/29 03:31:15;;;;;;;42.67;27.52;;;18.20;99.90;;;;;;5052017;28;20099;-78
2023/06/29 03:33:41;;;;;;;45.08;27.25;;;18.20;99.90;;;;;;5033642;28;20424;-75
2023/06/29 03:36:11;;;;;;;42.40;27.10;;;18.20;99.90;;;;;;5033310;28;20739;-78
2023/06/29 03:38:36;;;;;;;40.38;26.65;;;18.40;99.90;;;;;;5043533;28;20044;-79
2023/06/29 03:41:02;;;;;;;43.72;26.55;;;18.20;99.90;;;;;;5033643;28;20041;-79
2023/06/29 03:43:27;;;;;;;41.88;26.50;;;18.20;99.90;;;;;;5051311;28;20053;-78
2023/06/29 03:45:53;;;;;;;44.88;25.95;;;18.20;99.90;;;;;;5051946;28;20033;-79
2023/06/29 03:48:20;;;;;;;39.17;24.52;;;18.20;99.90;;;;;;5046737;28;20049;-78
2023/06/29 03:50:46;;;;;;;34.58;25.88;;;18.30;99.90;;;;;;5051019;28;20091;-78
2023/06/29 03:53:12;;;;;;;36.35;25.92;;;18.30;99.90;;;;;;5034070;28;20075;-78
2023/06/29 03:55:37;;;;;;;43.58;26.40;;;18.30;99.90;;;;;;5051331;28;20045;-78
2023/06/29 03:58:03;;;;;;;43.17;25.88;;;18.30;99.90;;;;;;5051678;28;20098;-79
2023/06/29 04:00:28;;;;;;;41.10;24.92;;;18.30;99.90;;;;;;5051418;28;20041;-78
2023/06/29 04:02:54;;;;;;;35.97;24.92;;;18.30;99.90;;;;;;5051574;28;20048;-79
2023/06/29 04:05:20;;;;;;;35.13;25.20;;;18.30;99.90;;;;;;5033043;28;20048;-78
2023/06/29 04:07:45;;;;;;;38.08;25.10;;;18.30;99.90;;;;;;5051278;28;20052;-78
2023/06/29 04:10:11;;;;;;;36.75;24.17;;;18.40;99.90;;;;;;5051160;28;20041;-78
2023/06/29 04:12:38;;;;;;;36.47;24.35;;;18.40;99.90;;;;;;5051358;28;20059;-78
2023/06/29 04:15:04;;;;;;;35.63;23.42;;;18.40;99.90;;;;;;5051336;28;20775;-79
2023/06/29 04:17:30;;;;;;;38.15;24.83;;;18.40;99.90;;;;;;5031288;28;20049;-79
2023/06/29 04:19:55;;;;;;;38.95;24.30;;;18.40;99.90;;;;;;5029865;28;20117;-79
2023/06/29 04:22:21;;;;;;;34.15;23.13;;;18.50;99.90;;;;;;5033293;28;20143;-79
2023/06/29 04:24:47;;;;;;;37.42;23.85;;;18.50;99.90;;;;;;5045438;28;20265;-80
2023/06/29 04:27:12;;;;;;;39.20;23.73;;;18.50;99.90;;;;;;5050959;28;20044;-77
2023/06/29 04:29:38;;;;;;;30.52;21.48;;;18.50;99.90;;;;;;5032692;28;20144;-79
2023/06/29 04:32:04;;;;;;;81.13;22.88;;;18.60;99.90;;;;;;5032883;28;20127;-79
2023/06/29 04:34:29;;;;;;;29.98;21.80;;;18.60;99.90;;;;;;5051286;28;20043;-78
2023/06/29 04:36:56;;;;;;;33.83;21.63;;;18.60;99.90;;;;;;5050847;28;20045;-79
2023/06/29 04:39:22;;;;;;;29.95;20.95;;;18.70;99.90;;;;;;5050870;28;20056;-79
2023/06/29 04:41:47;;;;;;;33.65;22.08;;;18.70;99.90;;;;;;5032391;28;20040;-78
2023/06/29 04:44:13;;;;;;;34.90;22.15;;;18.70;99.90;;;;;;5050745;28;20599;-77
2023/06/29 04:46:39;;;;;;;32.83;22.98;;;18.80;99.90;;;;;;5050420;28;20045;-76
2023/06/29 04:49:06;;;;;;;30.27;22.33;;;18.80;99.90;;;;;;5032321;28;20590;-75
2023/06/29 04:51:35;;;;;;;32.65;21.60;;;18.80;99.90;;;;;;5050598;28;20108;-76
2023/06/29 04:54:07;;;;;;;29.83;20.92;;;18.80;99.90;;;;;;5050788;28;20041;-76
2023/06/29 04:56:33;;;;;;;33.42;22.02;;;18.80;99.90;;;;;;5050301;28;20123;-75
2023/06/29 04:58:59;;;;;;;28.65;20.80;;;18.80;99.90;;;;;;5050512;28;20179;-75
2023/06/29 05:01:24;;;;;;;31.50;20.70;;;18.90;99.90;;;;;;5050356;28;20052;-75
2023/06/29 05:03:50;;;;;;;30.63;20.98;;;19.00;99.90;;;;;;5049799;28;20053;-76
2023/06/29 05:06:16;;;;;;;30.08;20.17;;;19.00;99.90;;;;;;5031966;28;20053;-75
2023/06/29 05:08:41;;;;;;;33.10;20.58;;;19.00;99.90;;;;;;5050256;28;20045;-76
2023/06/29 05:11:07;;;;;;;25.75;19.48;;;19.00;99.90;;;;;;5048450;28;20114;-76
2023/06/29 05:13:35;;;;;;;25.90;19.50;;;19.00;99.90;;;;;;5050223;28;20075;-78
2023/06/29 05:16:03;;;;;;;30.80;20.77;;;19.10;99.90;;;;;;5030415;28;20088;-78
2023/06/29 05:18:29;;;;;;;30.17;18.98;;;19.10;99.90;;;;;;5043826;28;20067;-79
2023/06/29 05:20:54;;;;;;;28.15;19.30;;;19.10;99.90;;;;;;5049936;28;20443;-78
2023/06/29 05:23:20;;;;;;;29.75;20.30;;;19.10;99.90;;;;;;5049644;28;20041;-78
2023/06/29 05:25:46;;;;;;;27.33;19.63;;;19.10;99.90;;;;;;5031986;28;20053;-79
2023/06/29 05:28:11;;;;;;;28.90;19.35;;;19.20;99.90;;;;;;5049552;28;20056;-79
2023/06/29 05:30:37;;;;;;;27.27;19.23;;;19.20;99.90;;;;;;5031413;28;20064;-76
2023/06/29 05:33:03;;;;;;;28.27;19.67;;;19.30;99.90;;;;;;5031637;28;20053;-78
2023/06/29 05:35:31;;;;;;;29.45;19.65;;;19.30;99.90;;;;;;5049272;28;20094;-79
2023/06/29 05:37:57;;;;;;;33.38;19.80;;;19.40;99.90;;;;;;5049127;28;20411;-78
2023/06/29 05:40:23;;;;;;;30.23;20.60;;;19.50;99.90;;;;;;5049560;28;20055;-76
2023/06/29 05:42:49;;;;;;;32.20;20.60;;;19.50;99.90;;;;;;5049467;28;20037;-78
2023/06/29 05:45:14;;;;;;;29.27;20.50;;;19.50;99.90;;;;;;5049496;28;20509;-78
2023/06/29 05:47:40;;;;;;;32.78;20.65;;;19.60;99.90;;;;;;5049386;28;20053;-78
2023/06/29 05:50:06;;;;;;;28.05;20.02;;;19.70;99.90;;;;;;5049883;28;20102;-79
2023/06/29 05:52:33;;;;;;;31.35;20.33;;;19.70;99.90;;;;;;5031547;28;20087;-77
2023/06/29 05:55:00;;;;;;;29.67;19.48;;;19.70;99.90;;;;;;5031927;28;20135;-78
2023/06/29 05:57:25;;;;;;;28.67;19.45;;;19.80;99.90;;;;;;5049294;28;20047;-78
2023/06/29 05:59:51;;;;;;;26.92;19.35;;;19.80;99.90;;;;;;5031541;28;20045;-78
2023/06/29 06:02:17;;;;;;;27.15;18.52;;;19.80;99.90;;;;;;5026264;28;20033;-80
2023/06/29 06:04:43;;;;;;;25.67;18.92;;;19.80;99.90;;;;;;5028753;28;20090;-78
2023/06/29 06:07:09;;;;;;;27.27;18.67;;;19.90;99.90;;;;;;5049763;28;20048;-78
2023/06/29 06:09:35;;;;;;;33.70;19.95;;;19.90;99.90;;;;;;5031476;28;20109;-77
2023/06/29 06:12:01;;;;;;;29.48;19.45;;;19.90;99.90;;;;;;5031305;28;20139;-78
2023/06/29 06:14:26;;;;;;;28.98;19.90;;;19.90;99.90;;;;;;5048911;28;20487;-80
2023/06/29 06:16:52;;;;;;;28.65;19.35;;;20.00;99.90;;;;;;5049178;28;20048;-79
2023/06/29 06:19:18;;;;;;;30.60;19.90;;;20.00;99.90;;;;;;5049372;28;20120;-80
2023/06/29 06:21:44;;;;;;;36.00;20.00;;;20.00;99.90;;;;;;5049542;28;20133;-79
2023/06/29 06:24:10;;;;;;;30.50;19.30;;;20.10;99.90;;;;;;5047537;28;20045;-77
2023/06/29 06:26:36;;;;;;;29.27;19.15;;;20.20;99.90;;;;;;5030888;28;20589;-78
2023/06/29 06:29:01;;;;;;;29.70;19.98;;;20.20;99.90;;;;;;5048759;28;20049;-79
2023/06/29 06:31:27;;;;;;;28.17;20.23;;;20.20;99.90;;;;;;5048886;28;20033;-78
2023/06/29 06:33:57;;;;;;;31.00;19.85;;;20.30;99.90;;;;;;5049498;28;20522;-79
2023/06/29 06:36:24;;;;;;;32.03;19.95;;;20.30;99.90;;;;;;5030829;28;20060;-79
2023/06/29 06:38:50;;;;;;;27.63;19.95;;;20.30;99.90;;;;;;5049177;28;20041;-78
2023/06/29 06:41:16;;;;;;;28.58;19.73;;;20.40;99.90;;;;;;5030962;28;20079;-80
2023/06/29 06:43:41;;;;;;;31.33;19.77;;;20.40;99.90;;;;;;5031018;28;20523;-80
2023/06/29 06:46:08;;;;;;;29.88;19.25;;;20.50;99.90;;;;;;5030943;28;20045;-79
2023/06/29 06:48:33;;;;;;;32.13;20.40;;;20.50;99.90;;;;;;5033328;28;20048;-80
2023/06/29 06:50:59;;;;;;;26.85;19.02;;;20.50;99.90;;;;;;5052918;28;20047;-79
2023/06/29 06:53:25;;;;;;;27.73;19.77;;;20.60;99.90;;;;;;5052984;28;20037;-79
2023/06/29 06:55:50;;;;;;;30.75;20.45;;;20.70;99.90;;;;;;5053039;28;20431;-80
2023/06/29 06:58:16;;;;;;;28.58;18.80;;;20.60;99.90;;;;;;5034562;28;20391;-79
2023/06/29 07:00:42;;;;;;;24.17;18.63;;;20.60;99.90;;;;;;5050344;28;20044;-79
2023/06/29 07:03:07;;;;;;;27.48;18.05;;;20.70;99.90;;;;;;5051994;28;20106;-80
2023/06/29 07:05:33;;;;;;;30.15;19.30;;;20.70;99.90;;;;;;5052627;28;20048;-80
2023/06/29 07:07:59;;;;;;;28.45;19.08;;;20.70;99.90;;;;;;5052427;28;20582;-80
2023/06/29 07:10:25;;;;;;;30.08;19.80;;;20.70;99.90;;;;;;5052305;28;20049;-80
2023/06/29 07:12:50;;;;;;;30.60;18.85;;;20.80;99.90;;;;;;5034207;28;20088;-79
2023/06/29 07:15:16;;;;;;;27.65;18.77;;;20.70;99.90;;;;;;5033772;28;20403;-80
2023/06/29 07:17:45;;;;;;;27.38;19.45;;;20.70;99.90;;;;;;5052203;28;20056;-77
2023/06/29 07:20:12;;;;;;;31.13;19.60;;;20.70;99.90;;;;;;5034115;28;20396;-79
2023/06/29 07:22:38;;;;;;;31.25;19.33;;;20.70;99.90;;;;;;5052569;28;20088;-77
2023/06/29 07:25:04;;;;;;;26.67;18.45;;;20.70;99.90;;;;;;5034368;28;20118;-76
2023/06/29 07:27:31;;;;;;;32.40;20.90;;;20.70;99.90;;;;;;5033153;28;20102;-79
2023/06/29 07:29:56;;;;;;;31.75;20.23;;;20.70;99.90;;;;;;5050051;28;20053;-76
2023/06/29 07:32:22;;;;;;;29.92;19.30;;;20.70;99.90;;;;;;5051840;28;20048;-80
2023/06/29 07:34:48;;;;;;;29.45;20.77;;;20.80;99.90;;;;;;5052130;28;20043;-77
2023/06/29 07:37:13;;;;;;;27.00;20.10;;;20.80;99.90;;;;;;5051866;28;20044;-78
2023/06/29 07:39:39;;;;;;;29.02;20.00;;;20.80;99.90;;;;;;5051998;28;20552;-77
2023/06/29 07:42:05;;;;;;;27.33;19.20;;;20.80;99.90;;;;;;5052067;28;20053;-78
2023/06/29 07:44:30;;;;;;;30.60;20.52;;;20.70;99.90;;;;;;5051453;28;20373;-79
2023/06/29 07:46:56;;;;;;;27.17;18.60;;;20.80;99.90;;;;;;5051286;28;20083;-79
2023/06/29 07:49:22;;;;;;;31.15;19.50;;;20.70;99.90;;;;;;5033553;28;20053;-78
2023/06/29 07:51:48;;;;;;;33.88;20.90;;;20.80;99.90;;;;;;5033668;28;20049;-78
2023/06/29 07:54:13;;;;;;;31.67;20.17;;;20.70;99.90;;;;;;5051873;28;20108;-80
2023/06/29 07:56:39;;;;;;;31.75;21.50;;;20.70;99.90;;;;;;5051441;28;20539;-76
2023/06/29 07:59:04;;;;;;;34.00;19.92;;;20.80;99.90;;;;;;5051415;28;20041;-79
2023/06/29 08:01:33;;;;;;;35.13;20.75;;;20.80;99.90;;;;;;5050920;28;20040;-79
2023/06/29 08:03:59;;;;;;;30.15;21.75;;;20.90;99.90;;;;;;5051284;28;20072;-79
2023/06/29 08:06:26;;;;;;;30.55;20.80;;;21.00;99.90;;;;;;5051634;28;20427;-80
2023/06/29 08:08:52;;;;;;;30.67;20.77;;;21.10;99.90;;;;;;5051518;28;20109;-80
2023/06/29 08:11:17;;;;;;;34.53;21.33;;;21.10;99.90;;;;;;5051141;28;20682;-73
2023/06/29 08:13:43;;;;;;;28.30;19.98;;;21.20;99.90;;;;;;5051289;28;20053;-77
2023/06/29 08:16:08;;;;;;;34.47;21.85;;;21.30;99.90;;;;;;5050629;28;20041;-78
2023/06/29 08:18:34;;;;;;;30.15;21.65;;;21.30;99.90;;;;;;5051034;28;20426;-77
2023/06/29 08:21:00;;;;;;;32.40;20.63;;;21.40;99.90;;;;;;5050933;28;20044;-80
2023/06/29 08:23:25;;;;;;;33.35;21.38;;;21.50;99.90;;;;;;5051235;28;20072;-79
2023/06/29 08:25:51;;;;;;;35.90;22.48;;;21.60;99.90;;;;;;5051040;28;20095;-79
2023/06/29 08:28:17;;;;;;;33.03;21.10;;;21.70;99.90;;;;;;5050702;28;20041;-78
2023/06/29 08:30:42;;;;;;;29.02;20.25;;;21.80;99.90;;;;;;5051240;28;20037;-78
2023/06/29 08:33:08;;;;;;;39.00;23.33;;;21.80;99.90;;;;;;5050924;28;20056;-79
2023/06/29 08:35:33;;;;;;;33.47;23.00;;;21.80;99.90;;;;;;5051138;28;20076;-79
2023/06/29 08:37:59;;;;;;;38.92;22.45;;;21.80;99.90;;;;;;5032888;28;20056;-78
2023/06/29 08:40:26;;;;;;;36.97;23.13;;;21.90;99.90;;;;;;5051056;28;20116;-77
2023/06/29 08:42:52;;;;;;;36.63;23.23;;;21.80;99.90;;;;;;5050807;28;20056;-79
2023/06/29 08:45:18;;;;;;;35.60;24.20;;;21.80;99.90;;;;;;5032537;28;20037;-79
2023/06/29 08:47:49;;;;;;;32.00;23.70;;;21.80;99.90;;;;;;5050268;28;20052;-78
2023/06/29 08:50:16;;;;;;;35.70;23.35;;;21.80;99.90;;;;;;5032240;28;20055;-79
2023/06/29 08:52:43;;;;;;;38.30;22.95;;;21.80;99.90;;;;;;5050325;28;20518;-77
2023/06/29 08:55:09;;;;;;;32.80;23.80;;;21.90;99.90;;;;;;5050694;28;20044;-78
2023/06/29 08:57:35;;;;;;;35.78;23.60;;;21.90;99.90;;;;;;5042892;28;20053;-78
2023/06/29 09:00:04;;;;;;;39.95;24.05;;;21.90;99.90;;;;;;5050542;28;20120;-78
2023/06/29 09:02:32;;;;;;;32.95;23.23;;;21.90;99.90;;;;;;5050213;28;20049;-78
2023/06/29 09:04:58;;;;;;;33.63;24.75;;;21.90;99.90;;;;;;5049849;28;20056;-79
2023/06/29 09:07:24;;;;;;;38.58;25.88;;;21.90;99.90;;;;;;5032738;28;20055;-79
2023/06/29 09:09:50;;;;;;;34.78;24.95;;;21.90;99.90;;;;;;5050451;28;20420;-78
2023/06/29 09:12:16;;;;;;;35.28;24.83;;;21.80;99.90;;;;;;5049110;28;20052;-77
2023/06/29 09:14:45;;;;;;;32.42;22.35;;;21.80;99.90;;;;;;5049923;28;20140;-76
2023/06/29 09:17:16;;;;;;;32.58;23.30;;;21.80;99.90;;;;;;5050121;28;20151;-78
2023/06/29 09:19:55;;;;;;;32.30;23.65;;;21.70;99.90;;;;;;5031265;28;20095;-78
2023/06/29 09:22:21;;;;;;;32.72;22.83;;;21.70;99.90;;;;;;5042078;28;20048;-76
2023/06/29 09:24:56;;;;;;;33.58;23.08;;;21.70;99.90;;;;;;5049807;28;20052;-78
2023/06/29 09:27:21;;;;;;;31.83;22.85;;;21.60;99.90;;;;;;5032314;28;20037;-79
2023/06/29 09:29:51;;;;;;;34.90;23.90;;;21.60;99.90;;;;;;5049998;28;20411;-78
2023/06/29 09:32:17;;;;;;;32.22;21.85;;;21.60;99.90;;;;;;5049701;28;20048;-78
2023/06/29 09:34:48;;;;;;;31.75;22.13;;;21.50;99.90;;;;;;5049193;28;20132;-80
2023/06/29 09:37:17;;;;;;;29.85;21.73;;;21.50;99.90;;;;;;5031586;28;20407;-78
2023/06/29 09:39:56;;;;;;;31.73;22.60;;;21.60;99.90;;;;;;5049806;28;20041;-78
2023/06/29 09:42:23;;;;;;;32.50;22.33;;;21.60;99.90;;;;;;5049620;28;20045;-78
2023/06/29 09:44:49;;;;;;;32.40;23.60;;;21.60;99.90;;;;;;5031904;28;20057;-77
2023/06/29 09:47:14;;;;;;;37.42;23.23;;;21.70;99.90;;;;;;5032025;28;20553;-76
2023/06/29 09:49:48;;;;;;;31.02;21.80;;;21.70;99.90;;;;;;5049144;28;20502;-77
2023/06/29 09:52:15;;;;;;;33.53;21.52;;;21.60;99.90;;;;;;5049942;28;20108;-76
2023/06/29 09:54:41;;;;;;;29.45;22.42;;;21.60;99.90;;;;;;5049679;28;20136;-76
2023/06/29 09:57:10;;;;;;;30.48;21.42;;;21.50;99.90;;;;;;5049790;28;20056;-74
2023/06/29 09:59:39;;;;;;;35.65;21.70;;;21.50;99.90;;;;;;5031429;28;20082;-76
2023/06/29 10:02:06;;;;;;;29.20;21.83;;;21.50;99.90;;;;;;5049575;28;20899;-77
2023/06/29 10:04:32;;;;;;;29.27;22.17;;;21.40;99.90;;;;;;5048223;28;20037;-77
2023/06/29 10:07:08;;;;;;;31.75;22.33;;;21.30;99.90;;;;;;5049149;28;20819;-77
2023/06/29 10:09:38;;;;;;;34.38;22.83;;;21.30;99.90;;;;;;5049584;28;20055;-77
2023/06/29 10:12:06;;;;;;;31.75;22.98;;;21.30;99.90;;;;;;5048483;28;20057;-76
2023/06/29 10:18:28;;;;;;;32.55;22.40;;;21.30;99.90;;;;;;4987918;28;20112;-78
2023/06/29 10:20:55;;;;;;;33.90;22.55;;;21.30;99.90;;;;;;4987955;28;20058;-76
2023/06/29 10:23:22;;;;;;;29.25;23.50;;;21.20;99.90;;;;;;4991912;28;20056;-78
2023/06/29 10:25:50;;;;;;;32.30;23.42;;;21.10;99.90;;;;;;4994218;28;20409;-78
2023/06/29 10:28:17;;;;;;;31.15;22.50;;;21.10;99.90;;;;;;4993904;28;20073;-78
2023/06/29 10:30:50;;;;;;;31.60;23.48;;;21.10;99.90;;;;;;4993992;28;20070;-79
2023/06/29 10:33:26;;;;;;;33.28;23.25;;;21.10;99.90;;;;;;4975520;28;20093;-77
2023/06/29 10:35:57;;;;;;;34.33;23.98;;;21.10;99.90;;;;;;4993033;28;20054;-78
2023/06/29 10:38:34;;;;;;;32.30;23.35;;;21.00;99.90;;;;;;4993860;28;20712;-78
2023/06/29 10:41:00;;;;;;;33.70;23.42;;;21.10;99.90;;;;;;4993628;28;20049;-77
2023/06/29 10:43:46;;;;;;;30.63;22.80;;;21.10;99.90;;;;;;4993283;28;20054;-77
2023/06/29 10:46:14;;;;;;;29.63;22.30;;;21.10;99.90;;;;;;4990781;28;20038;-79
2023/06/29 10:48:39;;;;;;;32.13;22.88;;;21.20;99.90;;;;;;4993475;28;20053;-77
2023/06/29 10:51:07;;;;;;;34.30;23.10;;;21.30;99.90;;;;;;4975637;28;20054;-78
2023/06/29 10:53:34;;;;;;;29.20;22.70;;;21.30;99.90;;;;;;4975661;28;20057;-79
2023/06/29 10:56:00;;;;;;;30.20;23.67;;;21.40;99.90;;;;;;4975762;28;20093;-79
2023/06/29 10:58:38;;;;;;;32.55;23.65;;;21.40;99.90;;;;;;4993599;28;20054;-79
2023/06/29 11:01:04;;;;;;;33.70;24.58;;;21.40;99.90;;;;;;4986654;28;20031;-79
2023/06/29 11:03:30;;;;;;;30.48;24.90;;;21.40;99.90;;;;;;4993128;28;20035;-80
2023/06/29 11:05:57;;;;;;;39.10;26.77;;;21.50;99.90;;;;;;4993141;28;20072;-78
2023/06/29 11:08:24;;;;;;;34.10;25.52;;;21.50;99.90;;;;;;4975090;28;20049;-79
2023/06/29 11:10:51;;;;;;;40.22;24.92;;;21.50;99.90;;;;;;4975657;28;20449;-79
2023/06/29 11:13:21;;;;;;;35.67;26.25;;;21.60;99.90;;;;;;4993106;28;20549;-78
2023/06/29 11:15:55;;;;;;;34.63;25.20;;;21.50;99.90;;;;;;4992712;28;20058;-78
2023/06/29 11:18:21;;;;;;;;;;;21.50;99.90;;;;;;4968717;28;20494;-78
2023/06/29 11:20:46;;;;;;;35.67;25.70;;;21.50;99.90;;;;;;4993065;28;19933;-77
2023/06/29 11:23:12;;;;;;;36.70;25.48;;;21.50;99.90;;;;;;4992672;28;20047;-79
2023/06/29 11:25:38;;;;;;;35.58;26.95;;;21.50;99.90;;;;;;4959331;28;20100;-79
2023/06/29 11:28:04;;;;;;;42.63;28.00;;;21.60;99.90;;;;;;4975609;28;20057;-79
2023/06/29 11:30:30;;;;;;;35.42;27.45;;;21.70;99.90;;;;;;4993229;28;20046;-75
2023/06/29 11:32:55;;;;;;;38.05;27.98;;;21.80;99.90;;;;;;4993001;28;20190;-79
2023/06/29 11:35:22;;;;;;;42.72;28.38;;;21.90;99.90;;;;;;4958004;28;20042;-79
2023/06/29 11:37:57;;;;;;;39.90;27.85;;;22.10;99.90;;;;;;4992139;28;20100;-79
2023/06/29 11:40:23;;;;;;;43.65;29.95;;;22.00;99.90;;;;;;4992477;28;20046;-78
2023/06/29 11:42:50;;;;;;;43.47;29.60;;;22.10;99.90;;;;;;4975364;28;20137;-78
2023/06/29 11:45:18;;;;;;;40.17;28.88;;;22.10;99.90;;;;;;4974489;28;20061;-76
2023/06/29 11:47:46;;;;;;;38.67;27.20;;;22.10;99.90;;;;;;4974702;28;20074;-77
2023/06/29 11:50:12;;;;;;;36.80;27.05;;;22.10;99.90;;;;;;4974934;28;20096;-80
2023/06/29 11:52:40;;;;;;;38.70;29.02;;;22.10;99.90;;;;;;4992150;28;20050;-75
2023/06/29 11:55:13;;;;;;;40.00;28.23;;;22.30;99.90;;;;;;4974582;28;20498;-77
2023/06/29 11:57:40;;;;;;;36.63;28.20;;;22.20;99.90;;;;;;4992358;28;20077;-75
2023/06/29 12:00:29;;;;;;;38.20;29.08;;;22.40;99.90;;;;;;4992407;28;20132;-78
2023/06/29 12:02:55;;;;;;;38.63;29.35;;;22.40;99.90;;;;;;4974631;28;20050;-77
2023/06/29 12:05:27;;;;;;;41.05;27.90;;;22.50;99.90;;;;;;4974657;28;20061;-79
2023/06/29 12:07:52;;;;;;;39.97;28.50;;;22.70;99.90;;;;;;4974516;28;20046;-77
2023/06/29 12:10:25;;;;;;;43.10;28.67;;;23.10;99.90;;;;;;4974630;28;20416;-77
2023/06/29 12:12:59;;;;;;;37.72;27.70;;;23.30;99.90;;;;;;4974505;28;20058;-77
2023/06/29 12:15:26;;;;;;;40.15;28.00;;;23.50;99.90;;;;;;4991953;28;20050;-79
2023/06/29 12:17:58;;;;;;;40.88;28.60;;;23.60;99.90;;;;;;4992574;28;20405;-79
2023/06/29 12:20:26;;;;;;;39.28;28.60;;;23.80;99.90;;;;;;4992368;28;20038;-78
2023/06/29 12:22:55;;;;;;;40.25;27.63;;;23.80;99.90;;;;;;4992103;28;20042;-78
2023/06/29 12:25:21;;;;;;;33.85;26.58;;;23.80;99.90;;;;;;4978025;28;20555;-78
2023/06/29 12:27:49;;;;;;;41.20;27.02;;;24.00;99.90;;;;;;4974350;28;20038;-79
2023/06/29 12:30:21;;;;;;;36.08;24.92;;;24.10;99.90;;;;;;4991406;28;20057;-75